sensor_id;sensor_type;location;lat;lon;timestamp;P1;durP1;ratioP1;P2;durP2;ratioP2
22648;SDS011;11491;41.942;24.220;2023-08-30T00:01:33;11.70;;;8.00;;
22648;SDS011;11491;41.942;24.220;2023-08-30T00:04:00;10.23;;;7.72;;
22648;SDS011;11491;41.942;24.220;2023-08-30T00:06:26;14.18;;;7.70;;
22648;SDS011;11491;41.942;24.220;2023-08-30T00:08:53;12.00;;;7.70;;
22648;SDS011;11491;41.942;24.220;2023-08-30T00:11:23;8.52;;;6.68;;
22648;SDS011;11491;41.942;24.220;2023-08-30T00:13:50;10.32;;;7.78;;
22648;SDS011;11491;41.942;24.220;2023-08-30T00:16:16;9.25;;;7.32;;
22648;SDS011;11491;41.942;24.220;2023-08-30T00:18:43;9.50;;;7.50;;
22648;SDS011;11491;41.942;24.220;2023-08-30T00:21:10;10.07;;;7.50;;
22648;SDS011;11491;41.942;24.220;2023-08-30T00:23:37;11.65;;;8.20;;
22648;SDS011;11491;41.942;24.220;2023-08-30T00:26:04;10.68;;;7.80;;
22648;SDS011;11491;41.942;24.220;2023-08-30T00:28:32;9.93;;;7.63;;
22648;SDS011;11491;41.942;24.220;2023-08-30T00:30:59;12.00;;;8.10;;
22648;SDS011;11491;41.942;24.220;2023-08-30T00:33:26;9.88;;;7.60;;
22648;SDS011;11491;41.942;24.220;2023-08-30T00:35:56;12.88;;;7.80;;
22648;SDS011;11491;41.942;24.220;2023-08-30T00:38:23;9.55;;;7.63;;
22648;SDS011;11491;41.942;24.220;2023-08-30T00:40:52;10.00;;;7.57;;
22648;SDS011;11491;41.942;24.220;2023-08-30T00:43:18;11.15;;;8.02;;
22648;SDS011;11491;41.942;24.220;2023-08-30T00:45:47;10.20;;;8.23;;
22648;SDS011;11491;41.942;24.220;2023-08-30T00:48:15;11.98;;;7.60;;
22648;SDS011;11491;41.942;24.220;2023-08-30T00:50:44;9.50;;;7.90;;
22648;SDS011;11491;41.942;24.220;2023-08-30T00:53:12;9.82;;;8.40;;
22648;SDS011;11491;41.942;24.220;2023-08-30T00:55:39;12.43;;;8.15;;
22648;SDS011;11491;41.942;24.220;2023-08-30T00:58:08;9.75;;;8.10;;
22648;SDS011;11491;41.942;24.220;2023-08-30T01:00:36;11.90;;;8.45;;
22648;SDS011;11491;41.942;24.220;2023-08-30T01:03:05;8.98;;;7.45;;
22648;SDS011;11491;41.942;24.220;2023-08-30T01:05:33;12.40;;;8.00;;
22648;SDS011;11491;41.942;24.220;2023-08-30T01:08:00;12.30;;;8.30;;
22648;SDS011;11491;41.942;24.220;2023-08-30T01:10:31;10.40;;;8.27;;
22648;SDS011;11491;41.942;24.220;2023-08-30T01:13:08;13.23;;;8.73;;
22648;SDS011;11491;41.942;24.220;2023-08-30T01:15:38;10.70;;;8.60;;
22648;SDS011;11491;41.942;24.220;2023-08-30T01:18:08;11.75;;;8.95;;
22648;SDS011;11491;41.942;24.220;2023-08-30T01:20:37;12.07;;;8.70;;
22648;SDS011;11491;41.942;24.220;2023-08-30T01:23:05;10.82;;;8.10;;
22648;SDS011;11491;41.942;24.220;2023-08-30T01:25:38;12.18;;;8.82;;
22648;SDS011;11491;41.942;24.220;2023-08-30T01:28:16;10.55;;;8.50;;
22648;SDS011;11491;41.942;24.220;2023-08-30T01:30:47;11.40;;;8.30;;
22648;SDS011;11491;41.942;24.220;2023-08-30T01:33:15;9.77;;;8.48;;
22648;SDS011;11491;41.942;24.220;2023-08-30T01:35:44;13.38;;;8.70;;
22648;SDS011;11491;41.942;24.220;2023-08-30T01:38:11;11.30;;;8.63;;
22648;SDS011;11491;41.942;24.220;2023-08-30T01:40:40;9.65;;;7.47;;
22648;SDS011;11491;41.942;24.220;2023-08-30T01:43:08;9.52;;;7.45;;
22648;SDS011;11491;41.942;24.220;2023-08-30T01:45:39;11.93;;;8.10;;
22648;SDS011;11491;41.942;24.220;2023-08-30T01:48:09;13.45;;;8.45;;
22648;SDS011;11491;41.942;24.220;2023-08-30T01:50:38;9.52;;;8.10;;
22648;SDS011;11491;41.942;24.220;2023-08-30T01:53:05;11.70;;;8.02;;
22648;SDS011;11491;41.942;24.220;2023-08-30T01:55:35;9.80;;;7.50;;
22648;SDS011;11491;41.942;24.220;2023-08-30T01:58:03;10.45;;;8.05;;
22648;SDS011;11491;41.942;24.220;2023-08-30T02:00:30;9.70;;;8.02;;
22648;SDS011;11491;41.942;24.220;2023-08-30T02:02:58;10.73;;;8.23;;
22648;SDS011;11491;41.942;24.220;2023-08-30T02:05:25;15.48;;;8.85;;
22648;SDS011;11491;41.942;24.220;2023-08-30T02:07:54;12.82;;;8.15;;
22648;SDS011;11491;41.942;24.220;2023-08-30T02:10:24;13.10;;;8.35;;
22648;SDS011;11491;41.942;24.220;2023-08-30T02:12:57;11.73;;;8.43;;
22648;SDS011;11491;41.942;24.220;2023-08-30T02:15:29;10.75;;;8.20;;
22648;SDS011;11491;41.942;24.220;2023-08-30T02:17:59;10.30;;;8.00;;
22648;SDS011;11491;41.942;24.220;2023-08-30T02:20:26;11.30;;;8.68;;
22648;SDS011;11491;41.942;24.220;2023-08-30T02:22:54;10.90;;;7.75;;
22648;SDS011;11491;41.942;24.220;2023-08-30T02:25:24;11.30;;;7.90;;
22648;SDS011;11491;41.942;24.220;2023-08-30T02:27:51;14.45;;;8.02;;
22648;SDS011;11491;41.942;24.220;2023-08-30T02:30:18;11.60;;;8.48;;
22648;SDS011;11491;41.942;24.220;2023-08-30T02:32:45;12.20;;;8.23;;
22648;SDS011;11491;41.942;24.220;2023-08-30T02:35:13;9.10;;;7.10;;
22648;SDS011;11491;41.942;24.220;2023-08-30T02:37:40;8.93;;;7.30;;
22648;SDS011;11491;41.942;24.220;2023-08-30T02:40:08;10.63;;;8.05;;
22648;SDS011;11491;41.942;24.220;2023-08-30T02:42:36;11.10;;;8.50;;
22648;SDS011;11491;41.942;24.220;2023-08-30T02:45:03;10.68;;;8.30;;
22648;SDS011;11491;41.942;24.220;2023-08-30T02:47:30;9.85;;;7.95;;
22648;SDS011;11491;41.942;24.220;2023-08-30T02:49:57;10.02;;;8.02;;
22648;SDS011;11491;41.942;24.220;2023-08-30T02:52:28;11.32;;;8.10;;
22648;SDS011;11491;41.942;24.220;2023-08-30T02:54:54;11.52;;;8.52;;
22648;SDS011;11491;41.942;24.220;2023-08-30T02:57:22;9.57;;;7.97;;
22648;SDS011;11491;41.942;24.220;2023-08-30T02:59:49;11.02;;;8.18;;
22648;SDS011;11491;41.942;24.220;2023-08-30T03:02:16;11.32;;;7.57;;
22648;SDS011;11491;41.942;24.220;2023-08-30T03:04:43;12.73;;;8.70;;
22648;SDS011;11491;41.942;24.220;2023-08-30T03:07:10;12.15;;;7.88;;
22648;SDS011;11491;41.942;24.220;2023-08-30T03:09:39;11.32;;;7.85;;
22648;SDS011;11491;41.942;24.220;2023-08-30T03:12:06;11.93;;;8.50;;
22648;SDS011;11491;41.942;24.220;2023-08-30T03:14:33;9.82;;;8.30;;
22648;SDS011;11491;41.942;24.220;2023-08-30T03:16:59;9.77;;;7.65;;
22648;SDS011;11491;41.942;24.220;2023-08-30T03:19:26;11.35;;;7.88;;
22648;SDS011;11491;41.942;24.220;2023-08-30T03:21:53;11.65;;;7.85;;
22648;SDS011;11491;41.942;24.220;2023-08-30T03:24:20;10.75;;;8.02;;
22648;SDS011;11491;41.942;24.220;2023-08-30T03:26:48;10.88;;;7.38;;
22648;SDS011;11491;41.942;24.220;2023-08-30T03:29:15;9.77;;;7.25;;
22648;SDS011;11491;41.942;24.220;2023-08-30T03:31:41;8.40;;;7.32;;
22648;SDS011;11491;41.942;24.220;2023-08-30T03:34:09;18.13;;;7.80;;
22648;SDS011;11491;41.942;24.220;2023-08-30T03:36:36;11.95;;;7.80;;
22648;SDS011;11491;41.942;24.220;2023-08-30T03:39:04;8.85;;;7.40;;
22648;SDS011;11491;41.942;24.220;2023-08-30T03:41:31;13.68;;;8.05;;
22648;SDS011;11491;41.942;24.220;2023-08-30T03:44:01;10.77;;;7.75;;
22648;SDS011;11491;41.942;24.220;2023-08-30T03:46:29;9.45;;;7.95;;
22648;SDS011;11491;41.942;24.220;2023-08-30T03:48:56;11.13;;;8.52;;
22648;SDS011;11491;41.942;24.220;2023-08-30T03:51:23;10.50;;;7.63;;
22648;SDS011;11491;41.942;24.220;2023-08-30T03:53:50;9.50;;;7.68;;
22648;SDS011;11491;41.942;24.220;2023-08-30T03:56:17;8.98;;;8.05;;
22648;SDS011;11491;41.942;24.220;2023-08-30T03:58:44;10.43;;;8.02;;
22648;SDS011;11491;41.942;24.220;2023-08-30T04:01:13;10.13;;;8.23;;
22648;SDS011;11491;41.942;24.220;2023-08-30T04:03:39;11.85;;;7.90;;
22648;SDS011;11491;41.942;24.220;2023-08-30T04:06:06;13.13;;;8.35;;
22648;SDS011;11491;41.942;24.220;2023-08-30T04:08:33;11.52;;;8.52;;
22648;SDS011;11491;41.942;24.220;2023-08-30T04:11:01;11.70;;;8.77;;
22648;SDS011;11491;41.942;24.220;2023-08-30T04:13:29;14.35;;;8.65;;
22648;SDS011;11491;41.942;24.220;2023-08-30T04:15:55;12.45;;;8.63;;
22648;SDS011;11491;41.942;24.220;2023-08-30T04:18:25;11.90;;;9.95;;
22648;SDS011;11491;41.942;24.220;2023-08-30T04:20:52;17.17;;;12.93;;
22648;SDS011;11491;41.942;24.220;2023-08-30T04:23:18;23.02;;;18.63;;
22648;SDS011;11491;41.942;24.220;2023-08-30T04:25:45;16.88;;;11.57;;
22648;SDS011;11491;41.942;24.220;2023-08-30T04:28:12;19.35;;;10.32;;
22648;SDS011;11491;41.942;24.220;2023-08-30T04:30:39;14.63;;;9.40;;
22648;SDS011;11491;41.942;24.220;2023-08-30T04:33:06;11.88;;;8.65;;
22648;SDS011;11491;41.942;24.220;2023-08-30T04:35:35;18.70;;;16.08;;
22648;SDS011;11491;41.942;24.220;2023-08-30T04:38:04;11.35;;;8.63;;
22648;SDS011;11491;41.942;24.220;2023-08-30T04:40:32;22.83;;;18.02;;
22648;SDS011;11491;41.942;24.220;2023-08-30T04:42:59;14.85;;;8.25;;
22648;SDS011;11491;41.942;24.220;2023-08-30T04:45:25;8.73;;;7.78;;
22648;SDS011;11491;41.942;24.220;2023-08-30T04:47:52;11.30;;;8.63;;
22648;SDS011;11491;41.942;24.220;2023-08-30T04:50:19;13.38;;;9.20;;
22648;SDS011;11491;41.942;24.220;2023-08-30T04:52:48;10.30;;;8.82;;
22648;SDS011;11491;41.942;24.220;2023-08-30T04:55:14;14.27;;;8.05;;
22648;SDS011;11491;41.942;24.220;2023-08-30T04:57:41;10.63;;;7.90;;
22648;SDS011;11491;41.942;24.220;2023-08-30T05:00:10;9.02;;;8.05;;
22648;SDS011;11491;41.942;24.220;2023-08-30T05:02:37;9.73;;;7.53;;
22648;SDS011;11491;41.942;24.220;2023-08-30T05:05:06;9.63;;;8.10;;
22648;SDS011;11491;41.942;24.220;2023-08-30T05:07:33;11.10;;;7.72;;
22648;SDS011;11491;41.942;24.220;2023-08-30T05:10:01;9.07;;;7.97;;
22648;SDS011;11491;41.942;24.220;2023-08-30T05:12:29;12.57;;;8.70;;
22648;SDS011;11491;41.942;24.220;2023-08-30T05:14:56;8.65;;;7.78;;
22648;SDS011;11491;41.942;24.220;2023-08-30T05:17:23;8.80;;;7.88;;
22648;SDS011;11491;41.942;24.220;2023-08-30T05:19:50;11.85;;;8.20;;
22648;SDS011;11491;41.942;24.220;2023-08-30T05:22:17;15.55;;;8.48;;
22648;SDS011;11491;41.942;24.220;2023-08-30T05:24:44;10.07;;;7.68;;
22648;SDS011;11491;41.942;24.220;2023-08-30T05:27:12;9.50;;;8.00;;
22648;SDS011;11491;41.942;24.220;2023-08-30T05:29:39;11.05;;;7.20;;
22648;SDS011;11491;41.942;24.220;2023-08-30T05:32:06;11.02;;;7.25;;
22648;SDS011;11491;41.942;24.220;2023-08-30T05:34:33;13.35;;;8.35;;
22648;SDS011;11491;41.942;24.220;2023-08-30T05:37:00;11.32;;;6.97;;
22648;SDS011;11491;41.942;24.220;2023-08-30T05:39:28;10.93;;;7.65;;
22648;SDS011;11491;41.942;24.220;2023-08-30T05:41:55;11.48;;;7.22;;
22648;SDS011;11491;41.942;24.220;2023-08-30T05:44:23;9.13;;;7.28;;
22648;SDS011;11491;41.942;24.220;2023-08-30T05:46:50;11.20;;;7.93;;
22648;SDS011;11491;41.942;24.220;2023-08-30T05:49:18;14.63;;;8.73;;
22648;SDS011;11491;41.942;24.220;2023-08-30T05:51:45;14.63;;;9.48;;
22648;SDS011;11491;41.942;24.220;2023-08-30T05:54:12;13.77;;;8.40;;
22648;SDS011;11491;41.942;24.220;2023-08-30T05:56:39;11.98;;;8.50;;
22648;SDS011;11491;41.942;24.220;2023-08-30T05:59:07;10.32;;;8.52;;
22648;SDS011;11491;41.942;24.220;2023-08-30T06:01:35;11.98;;;7.55;;
22648;SDS011;11491;41.942;24.220;2023-08-30T06:04:04;13.30;;;7.05;;
22648;SDS011;11491;41.942;24.220;2023-08-30T06:06:31;7.85;;;6.13;;
22648;SDS011;11491;41.942;24.220;2023-08-30T06:08:58;10.55;;;7.07;;
22648;SDS011;11491;41.942;24.220;2023-08-30T06:11:25;11.73;;;7.13;;
22648;SDS011;11491;41.942;24.220;2023-08-30T06:13:52;9.88;;;8.88;;
22648;SDS011;11491;41.942;24.220;2023-08-30T06:16:19;10.75;;;7.50;;
22648;SDS011;11491;41.942;24.220;2023-08-30T06:18:47;10.55;;;7.57;;
22648;SDS011;11491;41.942;24.220;2023-08-30T06:21:13;10.35;;;7.47;;
22648;SDS011;11491;41.942;24.220;2023-08-30T06:23:40;7.65;;;6.43;;
22648;SDS011;11491;41.942;24.220;2023-08-30T06:26:07;13.50;;;6.78;;
22648;SDS011;11491;41.942;24.220;2023-08-30T06:28:34;9.27;;;6.75;;
22648;SDS011;11491;41.942;24.220;2023-08-30T06:31:00;8.55;;;6.60;;
22648;SDS011;11491;41.942;24.220;2023-08-30T06:33:27;9.73;;;6.47;;
22648;SDS011;11491;41.942;24.220;2023-08-30T06:35:55;11.70;;;6.95;;
22648;SDS011;11491;41.942;24.220;2023-08-30T06:38:22;9.85;;;6.47;;
22648;SDS011;11491;41.942;24.220;2023-08-30T06:40:49;10.13;;;6.40;;
22648;SDS011;11491;41.942;24.220;2023-08-30T06:43:15;10.20;;;5.68;;
22648;SDS011;11491;41.942;24.220;2023-08-30T06:45:43;8.30;;;4.90;;
22648;SDS011;11491;41.942;24.220;2023-08-30T06:48:10;8.20;;;5.13;;
22648;SDS011;11491;41.942;24.220;2023-08-30T06:50:37;6.55;;;5.70;;
22648;SDS011;11491;41.942;24.220;2023-08-30T06:53:05;6.07;;;4.90;;
22648;SDS011;11491;41.942;24.220;2023-08-30T06:55:32;8.23;;;5.65;;
22648;SDS011;11491;41.942;24.220;2023-08-30T06:58:01;6.53;;;5.78;;
22648;SDS011;11491;41.942;24.220;2023-08-30T07:00:28;9.27;;;5.80;;
22648;SDS011;11491;41.942;24.220;2023-08-30T07:02:54;7.28;;;6.22;;
22648;SDS011;11491;41.942;24.220;2023-08-30T07:05:22;8.35;;;5.65;;
22648;SDS011;11491;41.942;24.220;2023-08-30T07:07:49;10.23;;;6.38;;
22648;SDS011;11491;41.942;24.220;2023-08-30T07:10:17;7.38;;;4.85;;
22648;SDS011;11491;41.942;24.220;2023-08-30T07:12:44;7.32;;;5.13;;
22648;SDS011;11491;41.942;24.220;2023-08-30T07:15:13;6.93;;;4.85;;
22648;SDS011;11491;41.942;24.220;2023-08-30T07:17:41;7.05;;;5.25;;
22648;SDS011;11491;41.942;24.220;2023-08-30T07:20:09;12.55;;;6.30;;
22648;SDS011;11491;41.942;24.220;2023-08-30T07:22:36;8.60;;;5.70;;
22648;SDS011;11491;41.942;24.220;2023-08-30T07:25:03;8.50;;;5.78;;
22648;SDS011;11491;41.942;24.220;2023-08-30T07:27:32;8.00;;;6.13;;
22648;SDS011;11491;41.942;24.220;2023-08-30T07:29:59;11.43;;;8.77;;
22648;SDS011;11491;41.942;24.220;2023-08-30T07:32:26;14.55;;;9.55;;
22648;SDS011;11491;41.942;24.220;2023-08-30T07:34:53;10.48;;;7.65;;
22648;SDS011;11491;41.942;24.220;2023-08-30T07:37:20;9.20;;;7.75;;
22648;SDS011;11491;41.942;24.220;2023-08-30T07:39:47;13.10;;;7.70;;
22648;SDS011;11491;41.942;24.220;2023-08-30T07:42:14;12.65;;;8.13;;
22648;SDS011;11491;41.942;24.220;2023-08-30T07:44:42;12.73;;;8.38;;
22648;SDS011;11491;41.942;24.220;2023-08-30T07:47:09;11.55;;;8.02;;
22648;SDS011;11491;41.942;24.220;2023-08-30T07:49:36;12.32;;;8.07;;
22648;SDS011;11491;41.942;24.220;2023-08-30T07:52:03;12.45;;;8.50;;
22648;SDS011;11491;41.942;24.220;2023-08-30T07:54:30;12.40;;;8.43;;
22648;SDS011;11491;41.942;24.220;2023-08-30T07:56:57;9.43;;;8.23;;
22648;SDS011;11491;41.942;24.220;2023-08-30T07:59:24;13.02;;;9.13;;
22648;SDS011;11491;41.942;24.220;2023-08-30T08:01:52;10.85;;;8.70;;
22648;SDS011;11491;41.942;24.220;2023-08-30T08:04:19;11.25;;;8.73;;
22648;SDS011;11491;41.942;24.220;2023-08-30T08:06:45;12.90;;;8.82;;
22648;SDS011;11491;41.942;24.220;2023-08-30T08:09:12;10.48;;;8.73;;
22648;SDS011;11491;41.942;24.220;2023-08-30T08:11:40;12.18;;;8.55;;
22648;SDS011;11491;41.942;24.220;2023-08-30T08:14:08;13.27;;;9.48;;
22648;SDS011;11491;41.942;24.220;2023-08-30T08:16:35;11.45;;;8.68;;
22648;SDS011;11491;41.942;24.220;2023-08-30T08:19:04;14.43;;;8.50;;
22648;SDS011;11491;41.942;24.220;2023-08-30T08:21:31;12.00;;;7.78;;
22648;SDS011;11491;41.942;24.220;2023-08-30T08:23:58;11.45;;;8.55;;
22648;SDS011;11491;41.942;24.220;2023-08-30T08:26:24;10.65;;;8.38;;
22648;SDS011;11491;41.942;24.220;2023-08-30T08:28:51;9.65;;;8.70;;
22648;SDS011;11491;41.942;24.220;2023-08-30T08:31:19;11.93;;;8.93;;
22648;SDS011;11491;41.942;24.220;2023-08-30T08:33:46;10.48;;;8.25;;
22648;SDS011;11491;41.942;24.220;2023-08-30T08:36:14;15.48;;;8.68;;
22648;SDS011;11491;41.942;24.220;2023-08-30T08:38:41;11.93;;;8.27;;
22648;SDS011;11491;41.942;24.220;2023-08-30T08:41:08;10.85;;;7.95;;
22648;SDS011;11491;41.942;24.220;2023-08-30T08:43:38;12.52;;;8.25;;
22648;SDS011;11491;41.942;24.220;2023-08-30T08:46:08;11.73;;;7.78;;
22648;SDS011;11491;41.942;24.220;2023-08-30T08:48:39;24.13;;;8.43;;
22648;SDS011;11491;41.942;24.220;2023-08-30T08:51:07;10.07;;;8.02;;
22648;SDS011;11491;41.942;24.220;2023-08-30T08:53:37;10.63;;;7.40;;
22648;SDS011;11491;41.942;24.220;2023-08-30T08:56:04;13.02;;;7.88;;
22648;SDS011;11491;41.942;24.220;2023-08-30T08:58:33;12.05;;;7.65;;
22648;SDS011;11491;41.942;24.220;2023-08-30T09:01:03;10.60;;;8.02;;
22648;SDS011;11491;41.942;24.220;2023-08-30T09:03:32;12.30;;;9.15;;
22648;SDS011;11491;41.942;24.220;2023-08-30T09:06:00;10.45;;;7.65;;
22648;SDS011;11491;41.942;24.220;2023-08-30T09:08:28;18.25;;;9.18;;
22648;SDS011;11491;41.942;24.220;2023-08-30T09:10:56;11.93;;;8.98;;
22648;SDS011;11491;41.942;24.220;2023-08-30T09:13:23;10.32;;;8.32;;
22648;SDS011;11491;41.942;24.220;2023-08-30T09:15:51;10.95;;;8.23;;
22648;SDS011;11491;41.942;24.220;2023-08-30T09:18:18;9.75;;;8.05;;
22648;SDS011;11491;41.942;24.220;2023-08-30T09:20:45;11.13;;;8.65;;
22648;SDS011;11491;41.942;24.220;2023-08-30T09:23:18;9.98;;;8.48;;
22648;SDS011;11491;41.942;24.220;2023-08-30T09:25:46;17.35;;;8.02;;
22648;SDS011;11491;41.942;24.220;2023-08-30T09:28:14;12.98;;;8.93;;
22648;SDS011;11491;41.942;24.220;2023-08-30T09:30:41;10.40;;;8.18;;
22648;SDS011;11491;41.942;24.220;2023-08-30T09:33:08;11.82;;;8.48;;
22648;SDS011;11491;41.942;24.220;2023-08-30T09:35:39;13.10;;;7.93;;
22648;SDS011;11491;41.942;24.220;2023-08-30T09:38:15;20.83;;;9.93;;
22648;SDS011;11491;41.942;24.220;2023-08-30T09:40:43;10.35;;;8.48;;
22648;SDS011;11491;41.942;24.220;2023-08-30T09:43:10;10.10;;;7.80;;
22648;SDS011;11491;41.942;24.220;2023-08-30T09:45:38;11.60;;;9.23;;
22648;SDS011;11491;41.942;24.220;2023-08-30T09:48:06;12.93;;;9.20;;
22648;SDS011;11491;41.942;24.220;2023-08-30T09:50:34;14.27;;;8.02;;
22648;SDS011;11491;41.942;24.220;2023-08-30T09:53:01;9.82;;;8.20;;
22648;SDS011;11491;41.942;24.220;2023-08-30T09:55:33;10.40;;;7.90;;
22648;SDS011;11491;41.942;24.220;2023-08-30T09:58:01;10.20;;;8.07;;
22648;SDS011;11491;41.942;24.220;2023-08-30T10:00:29;10.73;;;8.25;;
22648;SDS011;11491;41.942;24.220;2023-08-30T10:02:57;9.77;;;7.97;;
22648;SDS011;11491;41.942;24.220;2023-08-30T10:05:25;16.15;;;7.95;;
22648;SDS011;11491;41.942;24.220;2023-08-30T10:07:52;15.43;;;11.18;;
22648;SDS011;11491;41.942;24.220;2023-08-30T10:10:19;10.52;;;9.05;;
22648;SDS011;11491;41.942;24.220;2023-08-30T10:12:46;12.95;;;9.30;;
22648;SDS011;11491;41.942;24.220;2023-08-30T10:15:13;13.70;;;8.57;;
22648;SDS011;11491;41.942;24.220;2023-08-30T10:17:41;10.02;;;7.70;;
22648;SDS011;11491;41.942;24.220;2023-08-30T10:20:12;9.15;;;8.13;;
22648;SDS011;11491;41.942;24.220;2023-08-30T10:22:39;11.40;;;8.32;;
22648;SDS011;11491;41.942;24.220;2023-08-30T10:25:10;11.02;;;8.20;;
22648;SDS011;11491;41.942;24.220;2023-08-30T10:27:43;14.33;;;8.60;;
22648;SDS011;11491;41.942;24.220;2023-08-30T10:30:12;10.95;;;7.55;;
22648;SDS011;11491;41.942;24.220;2023-08-30T10:32:41;13.52;;;8.07;;
22648;SDS011;11491;41.942;24.220;2023-08-30T10:35:10;14.27;;;8.27;;
22648;SDS011;11491;41.942;24.220;2023-08-30T10:37:39;10.15;;;8.40;;
22648;SDS011;11491;41.942;24.220;2023-08-30T10:40:06;13.02;;;9.63;;
22648;SDS011;11491;41.942;24.220;2023-08-30T10:42:34;11.52;;;8.45;;
22648;SDS011;11491;41.942;24.220;2023-08-30T10:45:01;12.57;;;8.38;;
22648;SDS011;11491;41.942;24.220;2023-08-30T10:47:31;12.55;;;8.30;;
22648;SDS011;11491;41.942;24.220;2023-08-30T10:50:03;10.75;;;7.63;;
22648;SDS011;11491;41.942;24.220;2023-08-30T10:52:32;11.68;;;7.65;;
22648;SDS011;11491;41.942;24.220;2023-08-30T10:55:05;12.25;;;8.27;;
22648;SDS011;11491;41.942;24.220;2023-08-30T10:57:33;13.60;;;10.05;;
22648;SDS011;11491;41.942;24.220;2023-08-30T11:00:03;14.20;;;9.70;;
22648;SDS011;11491;41.942;24.220;2023-08-30T11:02:32;16.77;;;10.88;;
22648;SDS011;11491;41.942;24.220;2023-08-30T11:04:59;16.05;;;8.30;;
22648;SDS011;11491;41.942;24.220;2023-08-30T11:07:28;9.10;;;8.00;;
22648;SDS011;11491;41.942;24.220;2023-08-30T11:09:57;8.20;;;7.38;;
22648;SDS011;11491;41.942;24.220;2023-08-30T11:12:23;9.88;;;8.27;;
22648;SDS011;11491;41.942;24.220;2023-08-30T11:14:52;10.88;;;9.27;;
22648;SDS011;11491;41.942;24.220;2023-08-30T11:17:19;13.20;;;8.98;;
22648;SDS011;11491;41.942;24.220;2023-08-30T11:19:48;14.30;;;9.68;;
22648;SDS011;11491;41.942;24.220;2023-08-30T11:22:16;9.60;;;8.25;;
22648;SDS011;11491;41.942;24.220;2023-08-30T11:24:45;11.25;;;8.00;;
22648;SDS011;11491;41.942;24.220;2023-08-30T11:27:17;10.60;;;7.78;;
22648;SDS011;11491;41.942;24.220;2023-08-30T11:29:44;7.88;;;6.97;;
22648;SDS011;11491;41.942;24.220;2023-08-30T11:32:10;8.65;;;7.68;;
22648;SDS011;11491;41.942;24.220;2023-08-30T11:34:37;11.35;;;7.57;;
22648;SDS011;11491;41.942;24.220;2023-08-30T11:37:04;9.45;;;7.80;;
22648;SDS011;11491;41.942;24.220;2023-08-30T11:39:31;11.10;;;7.50;;
22648;SDS011;11491;41.942;24.220;2023-08-30T11:41:58;9.40;;;7.20;;
22648;SDS011;11491;41.942;24.220;2023-08-30T11:44:29;14.05;;;8.23;;
22648;SDS011;11491;41.942;24.220;2023-08-30T11:46:58;13.48;;;7.60;;
22648;SDS011;11491;41.942;24.220;2023-08-30T11:49:25;13.77;;;7.70;;
22648;SDS011;11491;41.942;24.220;2023-08-30T11:51:53;12.63;;;8.80;;
22648;SDS011;11491;41.942;24.220;2023-08-30T11:54:21;14.35;;;7.47;;
22648;SDS011;11491;41.942;24.220;2023-08-30T11:56:49;13.45;;;7.55;;
22648;SDS011;11491;41.942;24.220;2023-08-30T11:59:19;12.32;;;7.63;;
22648;SDS011;11491;41.942;24.220;2023-08-30T12:01:48;12.68;;;8.13;;
22648;SDS011;11491;41.942;24.220;2023-08-30T12:04:15;13.35;;;8.10;;
22648;SDS011;11491;41.942;24.220;2023-08-30T12:06:44;12.07;;;7.75;;
22648;SDS011;11491;41.942;24.220;2023-08-30T12:09:17;13.57;;;9.57;;
22648;SDS011;11491;41.942;24.220;2023-08-30T12:11:47;8.00;;;7.10;;
22648;SDS011;11491;41.942;24.220;2023-08-30T12:14:13;9.90;;;8.05;;
22648;SDS011;11491;41.942;24.220;2023-08-30T12:16:41;8.52;;;7.68;;
22648;SDS011;11491;41.942;24.220;2023-08-30T12:19:11;8.95;;;7.55;;
22648;SDS011;11491;41.942;24.220;2023-08-30T12:21:39;15.48;;;8.27;;
22648;SDS011;11491;41.942;24.220;2023-08-30T12:24:07;13.35;;;7.57;;
22648;SDS011;11491;41.942;24.220;2023-08-30T12:26:33;12.13;;;7.95;;
22648;SDS011;11491;41.942;24.220;2023-08-30T12:29:02;10.02;;;7.35;;
22648;SDS011;11491;41.942;24.220;2023-08-30T12:31:29;12.50;;;7.03;;
22648;SDS011;11491;41.942;24.220;2023-08-30T12:33:56;17.58;;;6.75;;
22648;SDS011;11491;41.942;24.220;2023-08-30T12:36:27;10.45;;;6.45;;
22648;SDS011;11491;41.942;24.220;2023-08-30T12:38:54;14.68;;;6.80;;
22648;SDS011;11491;41.942;24.220;2023-08-30T12:41:21;11.73;;;6.90;;
22648;SDS011;11491;41.942;24.220;2023-08-30T12:43:48;13.25;;;8.10;;
22648;SDS011;11491;41.942;24.220;2023-08-30T12:46:16;14.90;;;7.90;;
22648;SDS011;11491;41.942;24.220;2023-08-30T12:48:43;9.85;;;8.25;;
22648;SDS011;11491;41.942;24.220;2023-08-30T12:51:09;11.65;;;8.50;;
22648;SDS011;11491;41.942;24.220;2023-08-30T12:53:40;10.13;;;9.07;;
22648;SDS011;11491;41.942;24.220;2023-08-30T12:56:06;10.20;;;8.68;;
22648;SDS011;11491;41.942;24.220;2023-08-30T12:58:33;10.25;;;8.07;;
22648;SDS011;11491;41.942;24.220;2023-08-30T13:01:00;11.35;;;7.88;;
22648;SDS011;11491;41.942;24.220;2023-08-30T13:03:27;13.20;;;8.85;;
22648;SDS011;11491;41.942;24.220;2023-08-30T13:05:54;10.27;;;8.65;;
22648;SDS011;11491;41.942;24.220;2023-08-30T13:08:21;10.70;;;8.63;;
22648;SDS011;11491;41.942;24.220;2023-08-30T13:10:49;13.65;;;8.43;;
22648;SDS011;11491;41.942;24.220;2023-08-30T13:13:15;9.85;;;8.13;;
22648;SDS011;11491;41.942;24.220;2023-08-30T13:15:42;16.70;;;9.52;;
22648;SDS011;11491;41.942;24.220;2023-08-30T13:18:09;14.55;;;8.95;;
22648;SDS011;11491;41.942;24.220;2023-08-30T13:20:37;14.88;;;9.25;;
22648;SDS011;11491;41.942;24.220;2023-08-30T13:23:05;11.02;;;8.75;;
22648;SDS011;11491;41.942;24.220;2023-08-30T13:25:31;11.55;;;10.00;;
22648;SDS011;11491;41.942;24.220;2023-08-30T13:27:59;13.98;;;8.75;;
22648;SDS011;11491;41.942;24.220;2023-08-30T13:30:26;12.45;;;8.23;;
22648;SDS011;11491;41.942;24.220;2023-08-30T13:32:53;11.77;;;9.45;;
22648;SDS011;11491;41.942;24.220;2023-08-30T13:35:20;15.65;;;9.82;;
22648;SDS011;11491;41.942;24.220;2023-08-30T13:37:46;12.52;;;8.57;;
22648;SDS011;11491;41.942;24.220;2023-08-30T13:40:13;10.38;;;9.07;;
22648;SDS011;11491;41.942;24.220;2023-08-30T13:42:40;13.93;;;9.25;;
22648;SDS011;11491;41.942;24.220;2023-08-30T13:45:09;12.18;;;10.38;;
22648;SDS011;11491;41.942;24.220;2023-08-30T13:47:37;11.38;;;8.27;;
22648;SDS011;11491;41.942;24.220;2023-08-30T13:50:04;13.32;;;9.00;;
22648;SDS011;11491;41.942;24.220;2023-08-30T13:52:32;11.98;;;7.90;;
22648;SDS011;11491;41.942;24.220;2023-08-30T13:54:59;13.93;;;8.45;;
22648;SDS011;11491;41.942;24.220;2023-08-30T13:57:25;18.95;;;13.93;;
22648;SDS011;11491;41.942;24.220;2023-08-30T13:59:52;63.45;;;51.42;;
22648;SDS011;11491;41.942;24.220;2023-08-30T14:02:20;37.65;;;31.02;;
22648;SDS011;11491;41.942;24.220;2023-08-30T14:04:47;38.33;;;33.10;;
22648;SDS011;11491;41.942;24.220;2023-08-30T14:07:17;24.30;;;16.80;;
22648;SDS011;11491;41.942;24.220;2023-08-30T14:09:43;14.57;;;8.50;;
22648;SDS011;11491;41.942;24.220;2023-08-30T14:12:12;11.88;;;7.63;;
22648;SDS011;11491;41.942;24.220;2023-08-30T14:14:38;11.48;;;8.68;;
22648;SDS011;11491;41.942;24.220;2023-08-30T14:17:05;13.23;;;7.45;;
22648;SDS011;11491;41.942;24.220;2023-08-30T14:19:34;10.82;;;7.32;;
22648;SDS011;11491;41.942;24.220;2023-08-30T14:22:01;15.43;;;8.35;;
22648;SDS011;11491;41.942;24.220;2023-08-30T14:24:30;13.20;;;9.18;;
22648;SDS011;11491;41.942;24.220;2023-08-30T14:26:57;11.38;;;8.75;;